Time;durP1;ratioP1;P1;durP2;ratioP2;P2;SDS_P1;SDS_P2;PMS_P1;PMS_P2;Temp;Humidity;BMP_temperature;BMP_pressure;BME280_temperature;BME280_humidity;BME280_pressure;Samples;Min_cycle;Max_cycle;Signal;HPM_P1;HPM_P2
2023/01/06 00:01:19;;;;;;;0.80;0.80;;;;;;;;;;8238477;28;20284;-63
2023/01/06 00:05:19;;;;;;;0.60;0.60;;;;;;;;;;8239992;28;20030;-63
2023/01/06 00:09:19;;;;;;;0.70;0.50;;;;;;;;;;8240965;28;20026;-63
2023/01/06 00:13:19;;;;;;;1.30;1.20;;;;;;;;;;8220351;28;20273;-63
2023/01/06 00:17:20;;;;;;;1.92;1.00;;;;;;;;;;8238467;28;20052;-63
2023/01/06 00:21:20;;;;;;;0.60;0.50;;;;;;;;;;8237681;28;20041;-63
2023/01/06 00:25:20;;;;;;;0.50;0.50;;;;;;;;;;8236899;28;20502;-63
2023/01/06 00:29:20;;;;;;;0.93;0.52;;;;;;;;;;8220826;28;20034;-62
2023/01/06 00:33:21;;;;;;;0.90;0.90;;;;;;;;;;8237303;28;20395;-63
2023/01/06 00:37:21;;;;;;;0.60;0.60;;;;;;;;;;8237001;28;20272;-62
2023/01/06 00:45:40;;;;;;;0.70;0.70;;;;;;;;;;8238027;28;21032;-62
2023/01/06 00:49:41;;;;;;;0.90;0.90;;;;;;;;;;8223044;28;20034;-63
2023/01/06 00:53:41;;;;;;;0.90;0.90;;;;;;;;;;8223970;28;20022;-62
2023/01/06 00:57:41;;;;;;;0.85;0.85;;;;;;;;;;8234825;28;20096;-62
2023/01/06 01:01:42;;;;;;;0.93;0.93;;;;;;;;;;8236852;28;20044;-62
2023/01/06 01:05:42;;;;;;;1.08;1.08;;;;;;;;;;8236382;28;20022;-62
2023/01/06 01:09:43;;;;;;;1.00;1.00;;;;;;;;;;8236247;28;20022;-62
2023/01/06 01:13:43;;;;;;;1.17;1.08;;;;;;;;;;8236177;28;20104;-62
2023/01/06 01:17:43;;;;;;;1.17;1.08;;;;;;;;;;8233066;28;20157;-62
2023/01/06 01:21:43;;;;;;;1.87;1.00;;;;;;;;;;8236040;28;20133;-62
2023/01/06 01:25:44;;;;;;;1.00;1.00;;;;;;;;;;8233625;28;20035;-62
2023/01/06 01:29:44;;;;;;;1.25;1.15;;;;;;;;;;8234440;28;20038;-62
2023/01/06 01:33:44;;;;;;;1.42;1.33;;;;;;;;;;8233151;28;20061;-62
2023/01/06 01:37:44;;;;;;;1.48;1.30;;;;;;;;;;8237666;28;20486;-62
2023/01/06 01:41:45;;;;;;;1.40;1.30;;;;;;;;;;8233477;28;20139;-63
2023/01/06 01:45:47;;;;;;;1.15;1.10;;;;;;;;;;8235267;28;20053;-62
2023/01/06 01:49:50;;;;;;;1.20;1.20;;;;;;;;;;8235816;28;20037;-63
2023/01/06 01:53:52;;;;;;;1.40;1.30;;;;;;;;;;8234747;28;20033;-62
2023/01/06 01:58:22;;;;;;;1.63;1.17;;;;;;;;;;8233294;28;20392;-62
2023/01/06 02:02:22;;;;;;;0.95;0.93;;;;;;;;;;8214626;28;20030;-62
2023/01/06 02:06:23;;;;;;;0.98;0.90;;;;;;;;;;8233031;28;20117;-63
2023/01/06 02:10:24;;;;;;;2.15;0.90;;;;;;;;;;8234941;28;20137;-62
2023/01/06 02:14:26;;;;;;;0.95;0.85;;;;;;;;;;8235273;28;20028;-63
2023/01/06 02:18:41;;;;;;;0.60;0.60;;;;;;;;;;8231595;28;20708;-63
2023/01/06 02:22:50;;;;;;;0.73;0.73;;;;;;;;;;8234495;28;20029;-62
2023/01/06 02:26:50;;;;;;;0.70;0.70;;;;;;;;;;8235399;28;20030;-62
2023/01/06 02:30:56;;;;;;;0.47;0.47;;;;;;;;;;8232703;28;20034;-63
2023/01/06 02:35:11;;;;;;;0.50;0.50;;;;;;;;;;8236329;28;20034;-62
2023/01/06 02:39:18;;;;;;;1.08;0.50;;;;;;;;;;8233457;28;20033;-62
2023/01/06 02:43:27;;;;;;;0.43;0.40;;;;;;;;;;8233467;28;20057;-62
2023/01/06 02:47:32;;;;;;;0.45;0.45;;;;;;;;;;8234775;28;20085;-63
2023/01/06 02:51:36;;;;;;;0.68;0.40;;;;;;;;;;8232909;28;20090;-62
2023/01/06 02:55:42;;;;;;;0.40;0.40;;;;;;;;;;8235504;28;20034;-62
2023/01/06 02:59:52;;;;;;;0.40;0.40;;;;;;;;;;8233951;28;20046;-62
2023/01/06 03:03:53;;;;;;;1.23;0.45;;;;;;;;;;8217617;28;20040;-62
2023/01/06 03:07:54;;;;;;;1.17;0.50;;;;;;;;;;8232998;28;20097;-62
2023/01/06 03:11:54;;;;;;;0.55;0.50;;;;;;;;;;8230540;28;20025;-62
2023/01/06 03:15:54;;;;;;;0.47;0.43;;;;;;;;;;8230711;28;20099;-62
2023/01/06 03:19:55;;;;;;;0.93;0.52;;;;;;;;;;8234320;28;20266;-62
2023/01/06 03:23:55;;;;;;;1.13;0.50;;;;;;;;;;8232764;28;20522;-62
2023/01/06 03:27:55;;;;;;;0.50;0.50;;;;;;;;;;8231107;28;20029;-63
2023/01/06 03:32:07;;;;;;;0.60;0.60;;;;;;;;;;8236811;28;20100;-63
2023/01/06 03:36:15;;;;;;;0.90;0.80;;;;;;;;;;8237639;28;20037;-62
2023/01/06 03:40:26;;;;;;;1.30;0.60;;;;;;;;;;8228523;28;20041;-63
2023/01/06 03:44:38;;;;;;;1.95;0.60;;;;;;;;;;8236504;28;20865;-63
2023/01/06 03:48:44;;;;;;;0.50;0.50;;;;;;;;;;8238782;28;20041;-62
2023/01/06 03:52:49;;;;;;;0.50;0.50;;;;;;;;;;8239668;28;20030;-62
2023/01/06 03:56:53;;;;;;;1.27;0.50;;;;;;;;;;8239314;28;20033;-62
2023/01/06 04:00:54;;;;;;;2.70;0.60;;;;;;;;;;8235594;28;20038;-62
2023/01/06 04:05:02;;;;;;;1.45;0.43;;;;;;;;;;8236969;28;20117;-62
2023/01/06 04:09:02;;;;;;;0.52;0.40;;;;;;;;;;8238772;28;20022;-63
2023/01/06 04:13:02;;;;;;;0.60;0.47;;;;;;;;;;8238427;28;20491;-63
2023/01/06 04:17:02;;;;;;;2.65;0.60;;;;;;;;;;8237143;28;20092;-63
2023/01/06 04:21:03;;;;;;;0.57;0.50;;;;;;;;;;8236415;28;20026;-63
2023/01/06 04:25:03;;;;;;;1.57;0.60;;;;;;;;;;8237074;28;20296;-63
2023/01/06 04:29:04;;;;;;;2.25;0.60;;;;;;;;;;8238693;28;20266;-62
2023/01/06 04:33:04;;;;;;;0.97;0.50;;;;;;;;;;8237303;28;20034;-62
2023/01/06 04:37:04;;;;;;;0.70;0.60;;;;;;;;;;8237704;28;20268;-62
2023/01/06 04:41:05;;;;;;;0.50;0.50;;;;;;;;;;8235828;28;20277;-62
2023/01/06 04:45:05;;;;;;;2.00;0.60;;;;;;;;;;8237210;28;20026;-62
2023/01/06 04:49:05;;;;;;;3.13;0.60;;;;;;;;;;8237580;28;21125;-63
2023/01/06 04:53:06;;;;;;;0.60;0.60;;;;;;;;;;8237255;28;20022;-63
2023/01/06 04:57:06;;;;;;;0.80;0.60;;;;;;;;;;8234250;28;20032;-62
2023/01/06 05:01:08;;;;;;;0.47;0.47;;;;;;;;;;8238253;28;20276;-63
2023/01/06 05:05:08;;;;;;;0.60;0.60;;;;;;;;;;8238387;28;20092;-62
2023/01/06 05:09:09;;;;;;;1.88;0.70;;;;;;;;;;8234457;28;20080;-63
2023/01/06 05:13:09;;;;;;;1.95;0.90;;;;;;;;;;8236086;28;20030;-63
2023/01/06 05:17:09;;;;;;;0.77;0.77;;;;;;;;;;8232949;28;20507;-63
2023/01/06 05:21:09;;;;;;;1.85;0.88;;;;;;;;;;8236137;28;20137;-63
2023/01/06 05:25:09;;;;;;;2.27;0.90;;;;;;;;;;8235960;28;20026;-63
2023/01/06 05:29:14;;;;;;;2.80;1.05;;;;;;;;;;8234473;28;20026;-63
2023/01/06 05:33:14;;;;;;;1.80;0.70;;;;;;;;;;8235820;28;20038;-63
2023/01/06 05:37:15;;;;;;;1.65;0.60;;;;;;;;;;8235016;28;20014;-62
2023/01/06 05:41:15;;;;;;;1.35;0.70;;;;;;;;;;8236032;28;20972;-62
2023/01/06 05:45:15;;;;;;;0.50;0.50;;;;;;;;;;8233826;28;20025;-63
2023/01/06 05:49:15;;;;;;;0.83;0.50;;;;;;;;;;8234119;28;20029;-63
2023/01/06 05:53:16;;;;;;;0.77;0.67;;;;;;;;;;8233340;28;20269;-63
2023/01/06 05:57:16;;;;;;;0.60;0.60;;;;;;;;;;8235232;28;20273;-63
2023/01/06 06:01:16;;;;;;;1.55;0.52;;;;;;;;;;8233976;28;20282;-62
2023/01/06 06:05:16;;;;;;;0.50;0.50;;;;;;;;;;8233549;28;20040;-63
2023/01/06 06:09:17;;;;;;;0.43;0.43;;;;;;;;;;8234215;28;20081;-63
2023/01/06 06:13:17;;;;;;;0.85;0.55;;;;;;;;;;8233145;28;20068;-62
2023/01/06 06:17:17;;;;;;;2.08;0.70;;;;;;;;;;8231851;28;20042;-62
2023/01/06 06:21:22;;;;;;;1.50;0.40;;;;;;;;;;8235256;28;20026;-62
2023/01/06 06:25:22;;;;;;;2.47;0.63;;;;;;;;;;8230832;28;20089;-62
2023/01/06 06:29:22;;;;;;;0.88;0.80;;;;;;;;;;8234763;28;20480;-62
2023/01/06 06:33:22;;;;;;;1.33;0.60;;;;;;;;;;8230465;28;20075;-63
2023/01/06 06:37:22;;;;;;;1.08;0.50;;;;;;;;;;8231955;28;20139;-62
2023/01/06 06:41:23;;;;;;;1.77;1.30;;;;;;;;;;8233192;28;20990;-62
2023/01/06 06:45:24;;;;;;;0.98;0.98;;;;;;;;;;8230259;28;20145;-63
2023/01/06 06:49:24;;;;;;;4.82;2.60;;;;;;;;;;8232382;28;20037;-63
2023/01/06 06:53:24;;;;;;;3.13;1.33;;;;;;;;;;8232537;28;20022;-62
2023/01/06 06:57:24;;;;;;;2.13;0.90;;;;;;;;;;8232932;28;20026;-62
2023/01/06 07:01:24;;;;;;;2.85;1.52;;;;;;;;;;8229602;28;20058;-63
2023/01/06 07:05:25;;;;;;;2.47;1.48;;;;;;;;;;8234830;28;20034;-63
2023/01/06 07:09:25;;;;;;;4.57;1.50;;;;;;;;;;8237650;28;20034;-63
2023/01/06 07:13:25;;;;;;;3.00;1.50;;;;;;;;;;8237190;28;20030;-62
2023/01/06 07:17:28;;;;;;;2.40;0.90;;;;;;;;;;8234790;28;20096;-62
2023/01/06 07:21:29;;;;;;;0.60;0.60;;;;;;;;;;8236636;28;20022;-62
2023/01/06 07:25:29;;;;;;;0.80;0.55;;;;;;;;;;8221590;28;20069;-62
2023/01/06 07:29:29;;;;;;;1.52;0.70;;;;;;;;;;8235656;28;20026;-62
2023/01/06 07:33:29;;;;;;;2.22;1.00;;;;;;;;;;8236412;28;20041;-62
2023/01/06 07:37:29;;;;;;;3.97;1.23;;;;;;;;;;8234783;28;20033;-62
2023/01/06 07:41:31;;;;;;;1.17;0.88;;;;;;;;;;8236408;28;20112;-62
2023/01/06 07:45:31;;;;;;;3.40;1.02;;;;;;;;;;8237385;28;20081;-62
2023/01/06 07:49:32;;;;;;;1.38;0.80;;;;;;;;;;8235508;28;20249;-62
2023/01/06 07:53:32;;;;;;;1.00;0.90;;;;;;;;;;8234797;28;20026;-62
2023/01/06 07:57:32;;;;;;;1.95;1.17;;;;;;;;;;8235666;28;20025;-62
2023/01/06 08:01:32;;;;;;;1.53;1.00;;;;;;;;;;8236978;28;20042;-62
2023/01/06 08:05:35;;;;;;;1.33;1.00;;;;;;;;;;8237872;28;20276;-63
2023/01/06 08:09:36;;;;;;;2.50;1.23;;;;;;;;;;8235916;28;20079;-62
2023/01/06 08:13:36;;;;;;;3.25;1.00;;;;;;;;;;8235520;28;20062;-63
2023/01/06 08:17:36;;;;;;;2.55;1.30;;;;;;;;;;8234013;28;20487;-62
2023/01/06 08:21:36;;;;;;;0.98;0.57;;;;;;;;;;8235081;28;20902;-62
2023/01/06 08:25:36;;;;;;;0.70;0.70;;;;;;;;;;8235173;28;20026;-63
2023/01/06 08:29:37;;;;;;;1.17;0.60;;;;;;;;;;8233394;28;20277;-62
2023/01/06 08:33:37;;;;;;;0.77;0.60;;;;;;;;;;8223031;28;20161;-62
2023/01/06 08:37:37;;;;;;;0.63;0.63;;;;;;;;;;8236247;28;20069;-62
2023/01/06 08:41:38;;;;;;;0.98;0.88;;;;;;;;;;8234609;28;20038;-62
2023/01/06 08:45:38;;;;;;;0.65;0.60;;;;;;;;;;8234400;28;20046;-62
2023/01/06 08:49:38;;;;;;;0.60;0.60;;;;;;;;;;8234316;28;20032;-62
2023/01/06 08:53:39;;;;;;;0.43;0.43;;;;;;;;;;8232915;28;20030;-62
2023/01/06 08:57:39;;;;;;;1.42;0.60;;;;;;;;;;8234702;28;20030;-62
2023/01/06 09:01:40;;;;;;;4.03;0.70;;;;;;;;;;8235418;28;20499;-62
2023/01/06 09:05:40;;;;;;;0.75;0.70;;;;;;;;;;8232313;28;20387;-62
2023/01/06 09:09:42;;;;;;;1.10;0.60;;;;;;;;;;8234320;28;20022;-62
2023/01/06 09:13:43;;;;;;;1.25;0.70;;;;;;;;;;8253982;28;20025;-62
2023/01/06 09:17:43;;;;;;;1.30;0.80;;;;;;;;;;8232540;28;20042;-62
2023/01/06 09:21:45;;;;;;;1.10;0.70;;;;;;;;;;8234421;28;20021;-63
2023/01/06 09:25:45;;;;;;;4.05;1.05;;;;;;;;;;8233203;28;20116;-62
2023/01/06 09:29:45;;;;;;;1.73;1.40;;;;;;;;;;8216142;28;20049;-62
2023/01/06 09:33:45;;;;;;;4.63;2.30;;;;;;;;;;8235725;28;20038;-62
2023/01/06 09:37:45;;;;;;;2.80;1.20;;;;;;;;;;8234459;28;20316;-62
2023/01/06 09:41:46;;;;;;;2.42;1.58;;;;;;;;;;8233220;28;20022;-62
2023/01/06 09:45:49;;;;;;;1.60;1.50;;;;;;;;;;8234627;28;20038;-62
2023/01/06 09:49:56;;;;;;;3.42;1.70;;;;;;;;;;8233175;28;20030;-62
2023/01/06 09:54:03;;;;;;;2.40;1.40;;;;;;;;;;8231860;28;20030;-62
2023/01/06 09:58:07;;;;;;;2.78;1.50;;;;;;;;;;8232656;28;20350;-62
2023/01/06 10:02:12;;;;;;;2.67;1.65;;;;;;;;;;8233076;28;20168;-62
2023/01/06 10:06:31;;;;;;;2.30;1.40;;;;;;;;;;8231860;28;20149;-62
2023/01/06 10:10:54;;;;;;;2.08;1.48;;;;;;;;;;8229815;28;20021;-62
2023/01/06 10:15:00;;;;;;;2.22;1.30;;;;;;;;;;8228866;28;20030;-62
2023/01/06 10:19:04;;;;;;;2.00;1.13;;;;;;;;;;8231428;28;20045;-62
2023/01/06 10:23:19;;;;;;;4.88;1.65;;;;;;;;;;8232248;28;20025;-62
2023/01/06 10:27:26;;;;;;;1.55;1.30;;;;;;;;;;8234070;28;20026;-62
2023/01/06 10:31:31;;;;;;;2.35;1.73;;;;;;;;;;8232587;28;20088;-62
2023/01/06 10:35:32;;;;;;;1.40;1.30;;;;;;;;;;8231391;28;20026;-62
2023/01/06 10:39:34;;;;;;;2.97;1.80;;;;;;;;;;8233754;28;20029;-62
2023/01/06 10:43:34;;;;;;;3.20;1.60;;;;;;;;;;8219277;28;20041;-62
2023/01/06 10:47:34;;;;;;;3.03;1.50;;;;;;;;;;8238006;28;20038;-62
2023/01/06 10:51:36;;;;;;;2.53;1.50;;;;;;;;;;8239618;28;20026;-63
2023/01/06 10:55:38;;;;;;;2.35;1.52;;;;;;;;;;8235575;28;20149;-62
2023/01/06 10:59:59;;;;;;;1.30;1.15;;;;;;;;;;8236356;28;20036;-62
2023/01/06 11:04:08;;;;;;;1.48;1.17;;;;;;;;;;8222762;28;20418;-62
2023/01/06 11:08:14;;;;;;;0.85;0.85;;;;;;;;;;8238888;28;20034;-62
2023/01/06 11:12:16;;;;;;;1.58;1.00;;;;;;;;;;8236891;28;20512;-62
2023/01/06 11:16:17;;;;;;;1.83;1.00;;;;;;;;;;8239043;28;20140;-62
2023/01/06 11:20:18;;;;;;;3.25;0.90;;;;;;;;;;8237204;28;20030;-62
2023/01/06 11:24:20;;;;;;;1.35;0.90;;;;;;;;;;8237500;28;20140;-63
2023/01/06 11:28:20;;;;;;;1.33;0.80;;;;;;;;;;8234268;28;20028;-62
2023/01/06 11:32:22;;;;;;;2.88;1.00;;;;;;;;;;8235304;28;20744;-62
2023/01/06 11:36:23;;;;;;;1.58;1.00;;;;;;;;;;8234781;28;20040;-62
2023/01/06 11:40:28;;;;;;;4.55;1.25;;;;;;;;;;8236096;28;20415;-62
2023/01/06 11:44:34;;;;;;;1.83;1.00;;;;;;;;;;8234666;28;20387;-62
2023/01/06 11:48:35;;;;;;;1.00;0.90;;;;;;;;;;8235342;28;20042;-62
2023/01/06 11:52:37;;;;;;;1.30;1.00;;;;;;;;;;8234754;28;20058;-63
2023/01/06 11:56:37;;;;;;;1.05;0.95;;;;;;;;;;8235112;28;20081;-63
2023/01/06 12:00:37;;;;;;;2.30;1.10;;;;;;;;;;8234393;28;20866;-62
2023/01/06 12:04:41;;;;;;;1.42;1.00;;;;;;;;;;8234336;28;20793;-62
2023/01/06 12:08:48;;;;;;;3.13;1.00;;;;;;;;;;8233927;28;21238;-63
2023/01/06 12:12:49;;;;;;;3.35;0.93;;;;;;;;;;8235378;28;20813;-63
2023/01/06 12:16:58;;;;;;;1.30;0.82;;;;;;;;;;8232606;28;20034;-62
2023/01/06 12:20:59;;;;;;;0.82;0.82;;;;;;;;;;8232257;28;20116;-62
2023/01/06 12:25:00;;;;;;;1.30;0.85;;;;;;;;;;8233936;28;20025;-62
2023/01/06 12:29:03;;;;;;;0.77;0.77;;;;;;;;;;8231242;28;20018;-62
2023/01/06 12:33:06;;;;;;;0.80;0.80;;;;;;;;;;8233600;28;20061;-62
2023/01/06 12:37:19;;;;;;;0.70;0.70;;;;;;;;;;8232671;28;20026;-62
2023/01/06 12:41:38;;;;;;;2.80;1.10;;;;;;;;;;8232992;28;20025;-62
2023/01/06 12:45:58;;;;;;;13.95;7.72;;;;;;;;;;8231427;28;20050;-62
2023/01/06 12:50:01;;;;;;;4.65;3.25;;;;;;;;;;8233670;28;20073;-63
2023/01/06 12:54:16;;;;;;;6.53;3.50;;;;;;;;;;8233214;28;20030;-62
2023/01/06 12:58:25;;;;;;;3.58;2.28;;;;;;;;;;8233448;28;20030;-62
2023/01/06 13:02:41;;;;;;;2.25;2.05;;;;;;;;;;8232041;28;20050;-62
2023/01/06 13:06:41;;;;;;;2.22;1.58;;;;;;;;;;8232041;28;20022;-62
2023/01/06 13:10:45;;;;;;;1.27;1.17;;;;;;;;;;8231862;28;20235;-63
2023/01/06 13:14:45;;;;;;;;;;;;;;;;;;8233125;28;20129;-63
2023/01/06 13:19:04;;;;;;;1.45;1.17;;;;;;;;;;8237283;28;19960;-62
2023/01/06 13:23:13;;;;;;;3.03;1.35;;;;;;;;;;8232212;28;20029;-62
2023/01/06 13:27:27;;;;;;;1.13;0.82;;;;;;;;;;8231206;28;20032;-62
2023/01/06 13:31:31;;;;;;;1.70;1.00;;;;;;;;;;8232679;28;20085;-62
2023/01/06 13:35:31;;;;;;;;;;;;;;;;;;8234463;28;20740;-62
2023/01/06 13:39:33;;;;;;;1.27;0.88;;;;;;;;;;8229704;28;19917;-62
2023/01/06 13:43:34;;;;;;;2.38;0.90;;;;;;;;;;8228213;28;20072;-62
2023/01/06 13:47:34;;;;;;;2.80;0.88;;;;;;;;;;8230835;28;20045;-62
2023/01/06 13:51:36;;;;;;;0.80;0.80;;;;;;;;;;8230315;28;20084;-62
2023/01/06 13:55:37;;;;;;;0.90;0.73;;;;;;;;;;8232208;28;20061;-62
2023/01/06 13:59:51;;;;;;;0.93;0.80;;;;;;;;;;8228839;28;21054;-63
2023/01/06 14:03:51;;;;;;;0.83;0.70;;;;;;;;;;8229311;28;20989;-63
2023/01/06 14:07:53;;;;;;;0.95;0.80;;;;;;;;;;8234318;28;20017;-63
2023/01/06 14:11:53;;;;;;;0.70;0.70;;;;;;;;;;8225896;28;20026;-62
2023/01/06 14:16:02;;;;;;;1.98;1.13;;;;;;;;;;8230708;28;20030;-63
2023/01/06 14:20:02;;;;;;;1.33;0.90;;;;;;;;;;8228729;28;20026;-63
2023/01/06 14:24:03;;;;;;;1.45;0.90;;;;;;;;;;8227510;28;20030;-63
2023/01/06 14:28:04;;;;;;;2.85;1.02;;;;;;;;;;8233924;28;20046;-63
2023/01/06 14:32:06;;;;;;;0.90;0.70;;;;;;;;;;8229878;28;20049;-63
2023/01/06 14:36:13;;;;;;;0.80;0.70;;;;;;;;;;8232299;28;20040;-62
2023/01/06 14:40:32;;;;;;;1.33;0.90;;;;;;;;;;8230113;28;20103;-63
2023/01/06 14:44:39;;;;;;;2.08;1.30;;;;;;;;;;8227684;28;20042;-62
2023/01/06 14:48:42;;;;;;;1.95;0.80;;;;;;;;;;8229979;28;20088;-63
2023/01/06 14:52:52;;;;;;;0.80;0.80;;;;;;;;;;8228698;28;20030;-63
2023/01/06 14:56:54;;;;;;;0.98;0.75;;;;;;;;;;8232319;28;20101;-62
2023/01/06 15:00:54;;;;;;;0.90;0.90;;;;;;;;;;8216416;28;20145;-63
2023/01/06 15:04:55;;;;;;;1.33;0.82;;;;;;;;;;8229974;28;20124;-63
2023/01/06 15:09:18;;;;;;;0.95;0.90;;;;;;;;;;8228994;28;20522;-62
2023/01/06 15:13:20;;;;;;;0.90;0.90;;;;;;;;;;8230267;28;20022;-63
2023/01/06 15:17:20;;;;;;;0.70;0.70;;;;;;;;;;8228463;28;20049;-62
2023/01/06 15:21:22;;;;;;;0.88;0.88;;;;;;;;;;8228230;28;20057;-63
2023/01/06 15:25:23;;;;;;;1.33;0.80;;;;;;;;;;8229800;28;20029;-62
2023/01/06 15:29:24;;;;;;;0.77;0.77;;;;;;;;;;8234726;28;20022;-63
2023/01/06 15:33:31;;;;;;;0.70;0.70;;;;;;;;;;8234926;28;20153;-63
2023/01/06 15:37:33;;;;;;;1.15;0.88;;;;;;;;;;8235606;28;20076;-62
2023/01/06 15:41:36;;;;;;;2.33;0.82;;;;;;;;;;8234608;28;20030;-63
2023/01/06 15:45:36;;;;;;;1.10;1.00;;;;;;;;;;8251862;23;20606;-74
2023/01/06 15:49:36;;;;;;;0.80;0.70;;;;;;;;;;8236909;28;20040;-75
2023/01/06 15:53:37;;;;;;;0.85;0.80;;;;;;;;;;8253128;28;20573;-74
2023/01/06 15:57:37;;;;;;;2.30;0.90;;;;;;;;;;8253476;28;20818;-74
2023/01/06 16:01:45;;;;;;;0.85;0.80;;;;;;;;;;8250696;28;20789;-74
2023/01/06 16:05:47;;;;;;;0.70;0.70;;;;;;;;;;8248926;28;20034;-75
2023/01/06 16:09:48;;;;;;;2.53;0.90;;;;;;;;;;8237838;28;20100;-75
2023/01/06 16:13:48;;;;;;;0.80;0.80;;;;;;;;;;8238624;28;20022;-75
2023/01/06 16:17:48;;;;;;;0.90;0.90;;;;;;;;;;8207984;23;1098146;-63
2023/01/06 16:21:53;;;;;;;1.30;0.85;;;;;;;;;;8302787;23;20042;-75
2023/01/06 16:26:04;;;;;;;0.90;0.90;;;;;;;;;;8250290;28;20622;-75
2023/01/06 16:30:08;;;;;;;1.23;1.02;;;;;;;;;;8246548;28;20018;-75
2023/01/06 16:34:21;;;;;;;0.98;0.90;;;;;;;;;;8238945;28;20861;-74
2023/01/06 16:38:21;;;;;;;1.40;1.30;;;;;;;;;;8229046;28;20053;-74
2023/01/06 16:42:38;;;;;;;1.25;1.10;;;;;;;;;;8219146;28;20038;-74
2023/01/06 16:46:38;;;;;;;1.85;1.00;;;;;;;;;;8214107;28;20034;-75
2023/01/06 16:50:39;;;;;;;0.90;0.90;;;;;;;;;;8221525;28;20050;-75
2023/01/06 16:54:40;;;;;;;0.95;0.80;;;;;;;;;;8203433;28;20686;-74
2023/01/06 16:58:40;;;;;;;1.02;0.93;;;;;;;;;;8216601;28;20137;-74
2023/01/06 17:02:41;;;;;;;2.50;1.00;;;;;;;;;;8237943;28;20610;-75
2023/01/06 17:06:42;;;;;;;1.08;1.08;;;;;;;;;;8224399;28;20050;-75
2023/01/06 17:10:43;;;;;;;0.90;0.90;;;;;;;;;;8235400;28;20126;-74
2023/01/06 17:14:43;;;;;;;2.53;1.00;;;;;;;;;;8228810;28;20073;-74
2023/01/06 17:18:48;;;;;;;1.00;0.93;;;;;;;;;;8208178;28;20088;-76
2023/01/06 17:22:50;;;;;;;1.10;1.10;;;;;;;;;;8247699;28;20017;-73
2023/01/06 17:26:53;;;;;;;1.20;1.20;;;;;;;;;;8263742;28;20026;-74
2023/01/06 17:30:53;;;;;;;1.50;1.40;;;;;;;;;;8267745;28;20093;-75
2023/01/06 17:34:56;;;;;;;1.63;1.52;;;;;;;;;;8276462;28;20034;-74
2023/01/06 17:38:57;;;;;;;2.95;2.33;;;;;;;;;;8273190;28;20025;-73
2023/01/06 17:43:01;;;;;;;3.38;2.25;;;;;;;;;;8280204;28;20079;-73
2023/01/06 17:47:25;;;;;;;3.80;2.33;;;;;;;;;;8271927;28;20039;-73
2023/01/06 17:51:25;;;;;;;2.55;1.60;;;;;;;;;;8262284;28;20049;-73
2023/01/06 17:55:43;;;;;;;2.08;1.90;;;;;;;;;;8265097;28;20036;-74
2023/01/06 17:59:44;;;;;;;1.75;1.65;;;;;;;;;;8259836;28;20025;-74
2023/01/06 18:03:45;;;;;;;2.47;1.80;;;;;;;;;;8276203;28;20132;-74
2023/01/06 18:07:45;;;;;;;1.40;1.30;;;;;;;;;;8261000;23;20177;-62
2023/01/06 18:11:47;;;;;;;1.80;1.70;;;;;;;;;;8237699;28;20049;-63
2023/01/06 18:15:51;;;;;;;1.67;1.50;;;;;;;;;;8242256;28;20077;-63
2023/01/06 18:19:52;;;;;;;2.47;1.60;;;;;;;;;;8244192;28;20836;-63
2023/01/06 18:23:52;;;;;;;1.67;1.52;;;;;;;;;;8245613;28;20097;-63
2023/01/06 18:27:52;;;;;;;1.65;1.55;;;;;;;;;;8239605;28;20061;-63
2023/01/06 18:31:53;;;;;;;1.70;1.60;;;;;;;;;;8245829;28;20116;-63
2023/01/06 18:35:56;;;;;;;1.50;1.40;;;;;;;;;;8245262;28;20136;-63
2023/01/06 18:40:00;;;;;;;1.42;1.33;;;;;;;;;;8244616;28;20038;-62
2023/01/06 18:44:03;;;;;;;1.95;1.80;;;;;;;;;;8246574;28;20123;-62
2023/01/06 18:48:11;;;;;;;1.45;1.35;;;;;;;;;;8244187;28;20037;-63
2023/01/06 18:52:28;;;;;;;1.40;1.30;;;;;;;;;;8244469;28;20760;-63
2023/01/06 18:56:29;;;;;;;1.38;1.27;;;;;;;;;;8245257;28;20048;-63
2023/01/06 19:00:35;;;;;;;1.30;1.20;;;;;;;;;;8242085;28;20045;-63
2023/01/06 19:04:36;;;;;;;2.45;1.60;;;;;;;;;;8251671;28;20036;-62
2023/01/06 19:08:37;;;;;;;1.70;1.38;;;;;;;;;;8248070;28;20049;-67
2023/01/06 19:12:39;;;;;;;1.45;1.35;;;;;;;;;;8247599;28;20014;-63
2023/01/06 19:16:42;;;;;;;1.60;1.50;;;;;;;;;;8249930;28;20220;-63
2023/01/06 19:20:44;;;;;;;2.60;1.43;;;;;;;;;;8249225;28;20050;-63
2023/01/06 19:24:47;;;;;;;1.60;1.50;;;;;;;;;;8249990;28;20022;-63
2023/01/06 19:28:52;;;;;;;1.75;1.65;;;;;;;;;;8251058;28;20085;-63
2023/01/06 19:32:56;;;;;;;2.45;1.80;;;;;;;;;;8247372;28;20137;-63
2023/01/06 19:36:57;;;;;;;2.75;1.73;;;;;;;;;;8231580;28;20049;-63
2023/01/06 19:40:58;;;;;;;1.63;1.52;;;;;;;;;;8250199;28;20036;-63
2023/01/06 19:44:59;;;;;;;1.40;1.30;;;;;;;;;;8246684;28;20021;-63
2023/01/06 19:48:59;;;;;;;2.10;2.00;;;;;;;;;;8247724;28;20486;-63
2023/01/06 19:53:00;;;;;;;1.90;1.80;;;;;;;;;;8238723;28;20053;-63
2023/01/06 19:57:01;;;;;;;2.40;2.20;;;;;;;;;;8246656;28;20397;-63
2023/01/06 20:01:01;;;;;;;2.45;2.17;;;;;;;;;;8248681;28;20128;-63
2023/01/06 20:05:03;;;;;;;2.45;2.30;;;;;;;;;;8248461;28;20061;-63
2023/01/06 20:09:04;;;;;;;2.08;1.95;;;;;;;;;;8245807;28;20884;-63
2023/01/06 20:13:04;;;;;;;2.40;2.20;;;;;;;;;;8249017;28;20089;-63
2023/01/06 20:17:05;;;;;;;2.13;1.90;;;;;;;;;;8247728;28;20038;-63
2023/01/06 20:21:05;;;;;;;2.47;1.97;;;;;;;;;;8246890;28;20029;-63
2023/01/06 20:25:05;;;;;;;1.90;1.80;;;;;;;;;;8246042;28;20066;-63
2023/01/06 20:29:06;;;;;;;1.70;1.60;;;;;;;;;;8246640;28;20022;-63
2023/01/06 20:33:06;;;;;;;1.38;1.23;;;;;;;;;;8247055;28;20069;-62
2023/01/06 20:37:06;;;;;;;1.53;1.43;;;;;;;;;;8247725;28;20760;-62
2023/01/06 20:41:07;;;;;;;1.35;1.35;;;;;;;;;;8245645;28;21197;-62
2023/01/06 20:45:07;;;;;;;1.70;1.30;;;;;;;;;;8246937;28;20100;-63
2023/01/06 20:49:07;;;;;;;1.55;1.45;;;;;;;;;;8245131;28;20036;-62
2023/01/06 20:53:08;;;;;;;1.50;1.37;;;;;;;;;;8247063;28;20022;-62
2023/01/06 20:57:08;;;;;;;1.60;1.50;;;;;;;;;;8246105;28;20280;-62
2023/01/06 21:01:08;;;;;;;1.40;1.30;;;;;;;;;;8244610;28;20026;-63
2023/01/06 21:05:09;;;;;;;1.60;1.50;;;;;;;;;;8245612;28;20033;-63
2023/01/06 21:09:09;;;;;;;1.60;1.50;;;;;;;;;;8245615;28;20036;-63
2023/01/06 21:13:10;;;;;;;1.55;1.45;;;;;;;;;;8246492;28;20057;-63
2023/01/06 21:17:10;;;;;;;1.73;1.50;;;;;;;;;;8245287;28;20026;-63
2023/01/06 21:21:10;;;;;;;1.63;1.52;;;;;;;;;;8246546;28;20840;-63
2023/01/06 21:25:10;;;;;;;1.90;1.60;;;;;;;;;;8229259;28;20071;-63
2023/01/06 21:29:11;;;;;;;1.83;1.73;;;;;;;;;;8244893;28;20021;-63
2023/01/06 21:33:12;;;;;;;1.53;1.30;;;;;;;;;;8246102;28;20045;-63
2023/01/06 21:37:12;;;;;;;1.67;1.58;;;;;;;;;;8226577;28;20302;-63
2023/01/06 21:45:47;;;;;;;2.80;2.10;;;;;;;;;;8205996;28;20042;-64
2023/01/06 21:49:48;;;;;;;4.53;2.70;;;;;;;;;;8242888;28;20723;-64
2023/01/06 21:53:48;;;;;;;7.80;4.00;;;;;;;;;;8244016;28;20778;-63
2023/01/06 21:57:48;;;;;;;2.90;2.70;;;;;;;;;;8243959;28;20022;-64
2023/01/06 22:01:48;;;;;;;1.95;1.75;;;;;;;;;;8241756;28;20041;-63
2023/01/06 22:05:49;;;;;;;5.73;4.00;;;;;;;;;;8246624;28;20674;-65
2023/01/06 22:09:49;;;;;;;2.65;1.70;;;;;;;;;;8243594;28;20082;-62
2023/01/06 22:13:51;;;;;;;1.95;1.48;;;;;;;;;;8245244;28;20032;-63
2023/01/06 22:17:53;;;;;;;2.60;2.40;;;;;;;;;;8243530;28;20038;-62
2023/01/06 22:21:54;;;;;;;2.75;1.40;;;;;;;;;;8241101;28;20022;-62
2023/01/06 22:25:54;;;;;;;1.40;1.30;;;;;;;;;;8241354;28;20032;-62
2023/01/06 22:29:54;;;;;;;1.73;1.55;;;;;;;;;;8237681;28;20025;-62
2023/01/06 22:33:55;;;;;;;2.95;1.40;;;;;;;;;;8239772;28;20041;-62
2023/01/06 22:37:55;;;;;;;1.83;1.60;;;;;;;;;;8251074;28;20189;-62
2023/01/06 22:41:55;;;;;;;1.70;1.60;;;;;;;;;;8249215;28;22173;-62
2023/01/06 22:45:56;;;;;;;1.30;1.30;;;;;;;;;;8249473;28;21192;-62
2023/01/06 22:49:57;;;;;;;1.38;1.27;;;;;;;;;;8247491;28;20076;-62
2023/01/06 22:53:57;;;;;;;3.70;1.33;;;;;;;;;;8251279;28;20385;-62
2023/01/06 22:57:58;;;;;;;1.90;1.50;;;;;;;;;;8247078;28;20021;-62
2023/01/06 23:01:58;;;;;;;2.97;1.25;;;;;;;;;;8250914;28;20152;-62
2023/01/06 23:05:58;;;;;;;2.00;1.52;;;;;;;;;;8231277;28;20089;-62
2023/01/06 23:09:58;;;;;;;1.40;1.27;;;;;;;;;;8233577;28;20064;-62
2023/01/06 23:13:58;;;;;;;1.90;1.20;;;;;;;;;;8195531;28;20056;-62
2023/01/06 23:17:59;;;;;;;1.13;1.13;;;;;;;;;;8248124;28;20465;-62
2023/01/06 23:21:59;;;;;;;2.15;1.50;;;;;;;;;;8249725;28;20326;-62
2023/01/06 23:26:03;;;;;;;1.48;1.38;;;;;;;;;;8226894;28;20136;-62
2023/01/06 23:30:04;;;;;;;1.38;1.27;;;;;;;;;;8248733;28;20975;-62
2023/01/06 23:34:06;;;;;;;2.10;1.35;;;;;;;;;;8246572;28;20060;-64
2023/01/06 23:38:06;;;;;;;1.52;1.42;;;;;;;;;;8249732;28;20018;-62
2023/01/06 23:42:06;;;;;;;2.45;1.88;;;;;;;;;;8248447;28;20467;-62
2023/01/06 23:46:08;;;;;;;1.80;1.70;;;;;;;;;;8247578;28;20046;-62
2023/01/06 23:50:08;;;;;;;1.70;1.55;;;;;;;;;;8246682;28;20021;-62
2023/01/06 23:54:09;;;;;;;2.95;1.50;;;;;;;;;;8244956;28;20036;-62
2023/01/06 23:58:09;;;;;;;1.63;1.52;;;;;;;;;;8244893;28;20907;-63
